Time;durP1;ratioP1;P1;durP2;ratioP2;P2;SDS_P1;SDS_P2;PMS_P1;PMS_P2;Temp;Humidity;BMP_temperature;BMP_pressure;BME280_temperature;BME280_humidity;BME280_pressure;Samples;Min_cycle;Max_cycle;Signal;HPM_P1;HPM_P2
2021/05/17 00:00:37;;;;;;;1.05;0.60;;;6.50;99.90;;;;;;2072849;28;20179;-65
2021/05/17 00:01:38;;;;;;;0.70;0.50;;;6.50;99.90;;;;;;2072356;28;20174;-65
2021/05/17 00:02:42;;;;;;;1.00;0.40;;;6.50;99.90;;;;;;2072202;28;20185;-65
2021/05/17 00:03:49;;;;;;;1.50;0.50;;;6.60;99.90;;;;;;2072090;28;20186;-65
2021/05/17 00:04:50;;;;;;;0.40;0.40;;;6.60;99.90;;;;;;2072670;28;20162;-65
2021/05/17 00:05:52;;;;;;;0.60;0.40;;;6.50;99.90;;;;;;2072728;28;20213;-67
2021/05/17 00:06:53;;;;;;;0.88;0.57;;;6.60;99.90;;;;;;2072713;28;20186;-65
2021/05/17 00:07:54;;;;;;;0.97;0.50;;;6.60;99.90;;;;;;2072780;28;20182;-65
2021/05/17 00:08:55;;;;;;;0.77;0.40;;;6.50;99.90;;;;;;2072838;28;20197;-65
2021/05/17 00:09:56;;;;;;;0.33;0.33;;;6.50;99.90;;;;;;2072698;28;20204;-65
2021/05/17 00:10:57;;;;;;;2.60;0.60;;;6.50;99.90;;;;;;2072806;28;20284;-65
2021/05/17 00:11:59;;;;;;;3.13;0.52;;;6.40;99.90;;;;;;2072356;28;20428;-65
2021/05/17 00:13:00;;;;;;;1.92;0.47;;;6.50;99.90;;;;;;2072806;28;20189;-65
2021/05/17 00:14:00;;;;;;;2.28;0.50;;;6.50;99.90;;;;;;2074390;28;20177;-65
2021/05/17 00:15:07;;;;;;;0.87;0.40;;;6.50;99.90;;;;;;2074410;28;20170;-65
2021/05/17 00:16:09;;;;;;;0.30;0.30;;;6.50;99.90;;;;;;2074282;28;20177;-65
2021/05/17 00:17:10;;;;;;;0.50;0.50;;;6.50;99.90;;;;;;2074535;28;20177;-65
2021/05/17 00:18:12;;;;;;;0.73;0.40;;;6.50;99.90;;;;;;2073795;28;20205;-65
2021/05/17 00:19:13;;;;;;;0.95;0.50;;;6.50;99.90;;;;;;2073715;28;20185;-65
2021/05/17 00:20:17;;;;;;;0.40;0.40;;;6.50;99.90;;;;;;2074377;28;20197;-65
2021/05/17 00:21:18;;;;;;;0.40;0.40;;;6.50;99.90;;;;;;2074248;28;20182;-64
2021/05/17 00:22:19;;;;;;;0.30;0.30;;;6.40;99.90;;;;;;2074386;28;20193;-65
2021/05/17 00:23:20;;;;;;;0.63;0.35;;;6.40;99.90;;;;;;2074556;28;20188;-65
2021/05/17 00:24:21;;;;;;;0.40;0.30;;;6.40;99.90;;;;;;2074289;28;20275;-65
2021/05/17 00:25:23;;;;;;;0.45;0.30;;;6.40;99.90;;;;;;2074234;28;20189;-65
2021/05/17 00:26:24;;;;;;;0.60;0.40;;;6.30;99.90;;;;;;2074287;28;20209;-65
2021/05/17 00:27:25;;;;;;;0.47;0.40;;;6.40;99.90;;;;;;2074537;28;20182;-65
2021/05/17 00:28:26;;;;;;;0.63;0.50;;;6.40;99.90;;;;;;2073614;28;20178;-64
2021/05/17 00:29:27;;;;;;;0.63;0.43;;;6.40;99.90;;;;;;2073378;28;20743;-65
2021/05/17 00:30:31;;;;;;;0.30;0.30;;;6.40;99.90;;;;;;2074190;28;20185;-65
2021/05/17 00:31:32;;;;;;;0.68;0.40;;;6.30;99.90;;;;;;2074261;28;20185;-64
2021/05/17 00:32:33;;;;;;;0.55;0.50;;;6.40;99.90;;;;;;2073636;28;20186;-64
2021/05/17 00:33:34;;;;;;;0.50;0.50;;;6.30;99.90;;;;;;2073580;28;20236;-65
2021/05/17 00:34:35;;;;;;;0.60;0.60;;;6.30;99.90;;;;;;2074168;28;20227;-65
2021/05/17 00:35:36;;;;;;;0.40;0.40;;;6.30;99.90;;;;;;2074285;28;20848;-64
2021/05/17 00:36:38;;;;;;;0.47;0.47;;;6.40;99.90;;;;;;2074146;28;20182;-64
2021/05/17 00:37:40;;;;;;;0.30;0.30;;;6.30;99.90;;;;;;2074212;28;20284;-64
2021/05/17 00:38:41;;;;;;;1.67;0.50;;;6.40;99.90;;;;;;2074057;28;20248;-64
2021/05/17 00:39:43;;;;;;;2.20;0.40;;;6.40;99.90;;;;;;2074038;28;20267;-64
2021/05/17 00:40:45;;;;;;;1.02;0.40;;;6.40;99.90;;;;;;2073963;28;20181;-64
2021/05/17 00:41:46;;;;;;;1.02;0.60;;;6.30;99.90;;;;;;2065272;28;20190;-64
2021/05/17 00:42:47;;;;;;;1.10;0.50;;;6.40;99.90;;;;;;2065425;28;20635;-64
2021/05/17 00:43:48;;;;;;;0.68;0.52;;;6.40;99.90;;;;;;2074129;28;20201;-64
2021/05/17 00:44:49;;;;;;;2.28;0.88;;;6.40;99.90;;;;;;2073263;28;20229;-64
2021/05/17 00:45:50;;;;;;;0.63;0.57;;;6.40;99.90;;;;;;2073423;28;20217;-64
2021/05/17 00:46:51;;;;;;;0.68;0.50;;;6.40;99.90;;;;;;2065275;28;20190;-64
2021/05/17 00:47:53;;;;;;;0.88;0.50;;;6.40;99.90;;;;;;2065522;28;20187;-64
2021/05/17 00:48:54;;;;;;;0.95;0.63;;;6.50;99.90;;;;;;2073537;28;20196;-64
2021/05/17 00:49:55;;;;;;;0.47;0.47;;;6.40;99.90;;;;;;2073833;28;20201;-64
2021/05/17 00:50:56;;;;;;;0.73;0.60;;;6.40;99.90;;;;;;2065150;28;20968;-64
2021/05/17 00:51:57;;;;;;;2.17;0.57;;;6.30;99.90;;;;;;2065207;28;20441;-64
2021/05/17 00:52:58;;;;;;;2.95;0.70;;;6.40;99.90;;;;;;2065270;28;20183;-64
2021/05/17 00:54:01;;;;;;;1.10;0.50;;;6.40;99.90;;;;;;2065362;28;20186;-65
2021/05/17 00:55:03;;;;;;;0.73;0.50;;;6.40;99.90;;;;;;2065442;28;20174;-65
2021/05/17 00:56:05;;;;;;;1.02;0.60;;;6.40;99.90;;;;;;2074196;28;20269;-65
2021/05/17 00:57:07;;;;;;;1.95;0.55;;;6.40;99.90;;;;;;2074050;28;20185;-65
2021/05/17 00:58:08;;;;;;;0.47;0.40;;;6.40;99.90;;;;;;2073984;28;20209;-65
2021/05/17 00:59:09;;;;;;;0.70;0.50;;;6.40;99.90;;;;;;2073936;28;20178;-65
2021/05/17 01:00:14;;;;;;;0.65;0.50;;;6.40;99.90;;;;;;2065001;28;20269;-65
2021/05/17 01:01:17;;;;;;;0.50;0.47;;;6.50;99.90;;;;;;2065354;28;20188;-65
2021/05/17 01:02:18;;;;;;;2.25;0.80;;;6.50;99.90;;;;;;2073997;28;20181;-65
2021/05/17 01:03:19;;;;;;;1.07;0.60;;;6.40;99.90;;;;;;2073869;28;20182;-65
2021/05/17 01:04:20;;;;;;;1.23;0.60;;;6.50;99.90;;;;;;2073967;28;20174;-65
2021/05/17 01:05:21;;;;;;;1.43;0.83;;;6.50;99.90;;;;;;2073796;28;20182;-65
2021/05/17 01:06:23;;;;;;;2.07;0.70;;;6.50;99.90;;;;;;2073911;28;20650;-65
2021/05/17 01:07:27;;;;;;;1.92;0.75;;;6.50;99.90;;;;;;2073865;28;20186;-65
2021/05/17 01:09:08;;;;;;;0.75;0.75;;;6.50;99.90;;;;;;2073573;28;20204;-65
2021/05/17 01:10:09;;;;;;;1.63;0.70;;;6.40;99.90;;;;;;2063015;28;20182;-65
2021/05/17 01:11:12;;;;;;;1.83;0.60;;;6.40;99.90;;;;;;2064995;28;20746;-65
2021/05/17 01:12:16;;;;;;;1.10;0.70;;;6.40;99.90;;;;;;2073808;28;20686;-65
2021/05/17 01:13:17;;;;;;;2.30;0.60;;;6.40;99.90;;;;;;2073929;28;20243;-65
2021/05/17 01:14:17;;;;;;;2.15;0.80;;;6.40;99.90;;;;;;2073787;28;20188;-65
2021/05/17 01:15:19;;;;;;;0.90;0.80;;;6.50;99.90;;;;;;2073884;28;20189;-65
2021/05/17 01:16:20;;;;;;;1.40;0.77;;;6.50;99.90;;;;;;2073861;28;20184;-65
2021/05/17 01:17:22;;;;;;;3.93;1.00;;;6.50;99.90;;;;;;2073846;28;20196;-65
2021/05/17 01:18:23;;;;;;;2.83;0.95;;;6.60;99.90;;;;;;2064995;28;20479;-65
2021/05/17 01:19:41;;;;;;;1.63;0.80;;;6.60;99.90;;;;;;2065234;28;20206;-65
2021/05/17 01:20:45;;;;;;;2.95;0.63;;;6.60;99.90;;;;;;2073809;28;20177;-65
2021/05/17 01:21:51;;;;;;;1.52;0.95;;;6.60;99.90;;;;;;2073626;28;20186;-65
2021/05/17 01:24:24;;;;;;;2.25;0.70;;;6.60;99.90;;;;;;2069707;28;20202;-65
2021/05/17 01:25:27;;;;;;;3.42;0.95;;;6.60;99.90;;;;;;2073088;28;20212;-65
2021/05/17 01:26:32;;;;;;;2.03;0.85;;;6.60;99.90;;;;;;2073607;28;20196;-65
2021/05/17 01:27:35;;;;;;;1.35;0.63;;;6.60;99.90;;;;;;2073797;28;20644;-65
2021/05/17 01:28:38;;;;;;;2.92;0.85;;;6.60;99.90;;;;;;2073587;28;20205;-65
2021/05/17 01:29:40;;;;;;;3.33;1.55;;;6.60;99.90;;;;;;2073689;28;20301;-64
2021/05/17 01:30:41;;;;;;;2.95;1.15;;;6.60;99.90;;;;;;2064827;28;20666;-65
2021/05/17 01:31:42;;;;;;;3.00;1.00;;;6.60;99.90;;;;;;2064978;28;20185;-65
2021/05/17 01:32:44;;;;;;;2.50;0.97;;;6.60;99.90;;;;;;2073589;28;20185;-65
2021/05/17 01:33:46;;;;;;;3.78;1.00;;;6.70;99.90;;;;;;2073827;28;20178;-63
2021/05/17 01:34:47;;;;;;;2.42;1.30;;;6.70;99.90;;;;;;2073794;28;20182;-65
2021/05/17 01:35:48;;;;;;;3.72;1.10;;;6.70;99.90;;;;;;2073211;28;20181;-65
2021/05/17 01:36:51;;;;;;;5.25;1.13;;;6.70;99.90;;;;;;2073175;28;20193;-65
2021/05/17 01:37:52;;;;;;;3.72;1.10;;;6.80;99.90;;;;;;2065522;28;20186;-65
2021/05/17 01:38:55;;;;;;;3.00;1.00;;;6.80;99.90;;;;;;2065489;28;20194;-65
2021/05/17 01:39:58;;;;;;;2.97;1.10;;;6.80;99.90;;;;;;2073777;28;20267;-65
2021/05/17 01:40:59;;;;;;;3.67;1.38;;;6.80;99.90;;;;;;2073679;28;20235;-62
2021/05/17 01:42:00;;;;;;;5.23;1.53;;;6.80;99.90;;;;;;2065009;28;20562;-65
2021/05/17 01:43:03;;;;;;;4.22;0.95;;;6.80;99.90;;;;;;2064921;28;20460;-64
2021/05/17 01:44:09;;;;;;;3.75;1.23;;;6.80;99.90;;;;;;2065203;28;20178;-66
2021/05/17 01:45:11;;;;;;;4.82;0.93;;;6.90;99.90;;;;;;2064868;28;20186;-65
2021/05/17 01:46:27;;;;;;;3.70;1.10;;;6.80;99.90;;;;;;2065133;28;20214;-65
2021/05/17 01:47:30;;;;;;;6.80;1.35;;;6.80;99.90;;;;;;2073639;28;20173;-65
2021/05/17 01:48:36;;;;;;;9.98;1.60;;;6.80;99.90;;;;;;2074644;28;20181;-65
2021/05/17 01:49:40;;;;;;;2.92;1.05;;;6.80;99.90;;;;;;2073595;28;20732;-65
2021/05/17 01:50:41;;;;;;;4.35;1.20;;;6.80;99.90;;;;;;2073221;28;20617;-65
2021/05/17 01:51:51;;;;;;;4.30;1.13;;;6.80;99.90;;;;;;2073065;28;20190;-65
2021/05/17 01:52:52;;;;;;;5.00;1.15;;;6.80;99.90;;;;;;2073778;28;20174;-65
2021/05/17 01:53:53;;;;;;;4.53;1.20;;;6.80;99.90;;;;;;2073764;28;20178;-65
2021/05/17 01:54:55;;;;;;;4.65;1.30;;;6.80;99.90;;;;;;2073612;28;20982;-65
2021/05/17 01:55:56;;;;;;;8.70;1.52;;;6.80;99.90;;;;;;2066185;28;20213;-65
2021/05/17 01:56:57;;;;;;;5.22;1.60;;;6.80;99.90;;;;;;2066440;28;20186;-65
2021/05/17 01:58:11;;;;;;;2.70;1.05;;;6.80;99.90;;;;;;2074572;28;20190;-65
2021/05/17 01:59:12;;;;;;;4.75;1.40;;;6.80;99.90;;;;;;2074497;28;20165;-65
2021/05/17 02:00:17;;;;;;;6.07;1.60;;;6.80;99.90;;;;;;2066195;28;20194;-65
2021/05/17 02:01:19;;;;;;;7.63;1.60;;;6.80;99.90;;;;;;2065503;28;20183;-64
2021/05/17 02:02:20;;;;;;;4.57;1.30;;;6.70;99.90;;;;;;2071769;28;20201;-65
2021/05/17 02:03:20;;;;;;;3.38;1.15;;;6.70;99.90;;;;;;2064652;28;20220;-65
2021/05/17 02:04:23;;;;;;;4.10;1.50;;;6.80;99.90;;;;;;2064789;28;20612;-65
2021/05/17 02:05:23;;;;;;;4.70;1.48;;;6.80;99.90;;;;;;2064622;28;20690;-65
2021/05/17 02:06:24;;;;;;;4.83;1.27;;;6.80;99.90;;;;;;2064956;28;20190;-65
2021/05/17 02:07:25;;;;;;;8.60;2.10;;;6.80;99.90;;;;;;2073578;28;20173;-64
2021/05/17 02:08:27;;;;;;;8.13;1.70;;;6.80;99.90;;;;;;2073610;28;20340;-65
2021/05/17 02:09:32;;;;;;;4.20;1.30;;;6.80;99.90;;;;;;2064598;28;20202;-65
2021/05/17 02:10:33;;;;;;;5.95;1.40;;;6.80;99.90;;;;;;2065584;28;20186;-65
2021/05/17 02:11:34;;;;;;;5.40;1.90;;;6.80;99.90;;;;;;2073325;28;20759;-65
2021/05/17 02:12:35;;;;;;;5.17;1.93;;;6.70;99.90;;;;;;2073497;28;20634;-65
2021/05/17 02:13:38;;;;;;;5.57;1.50;;;6.70;99.90;;;;;;2073389;28;20301;-65
2021/05/17 02:14:39;;;;;;;8.95;1.90;;;6.70;99.90;;;;;;2064862;28;20194;-65
2021/05/17 02:15:44;;;;;;;7.22;1.30;;;6.70;99.90;;;;;;2064589;28;20190;-65
2021/05/17 02:16:45;;;;;;;5.20;1.65;;;6.70;99.90;;;;;;2065073;28;20307;-65
2021/05/17 02:18:03;;;;;;;8.95;1.77;;;6.70;99.90;;;;;;2073426;28;20185;-65
2021/05/17 02:19:04;;;;;;;7.00;1.50;;;6.70;99.90;;;;;;2073313;28;20224;-65
2021/05/17 02:20:06;;;;;;;4.25;1.23;;;6.70;99.90;;;;;;2073404;28;20181;-65
2021/05/17 02:21:09;;;;;;;5.93;1.00;;;6.60;99.90;;;;;;2073225;28;20260;-66
2021/05/17 02:22:10;;;;;;;4.07;1.00;;;6.60;99.90;;;;;;2064445;28;20184;-65
2021/05/17 02:23:14;;;;;;;2.27;0.90;;;6.60;99.90;;;;;;2064667;28;20236;-63
2021/05/17 02:24:15;;;;;;;6.07;1.10;;;6.60;99.90;;;;;;2073496;28;20957;-66
2021/05/17 02:25:16;;;;;;;3.28;1.20;;;6.50;99.90;;;;;;2064578;28;20282;-65
2021/05/17 02:26:17;;;;;;;3.10;0.98;;;6.50;99.90;;;;;;2064712;28;20206;-65
2021/05/17 02:27:19;;;;;;;2.40;0.80;;;6.50;99.90;;;;;;2056261;28;20191;-64
2021/05/17 02:28:19;;;;;;;4.38;0.80;;;6.40;99.90;;;;;;2056724;28;20183;-63
2021/05/17 02:29:20;;;;;;;6.70;1.00;;;6.40;99.90;;;;;;2073062;28;20472;-63
2021/05/17 02:30:23;;;;;;;3.17;0.80;;;6.40;99.90;;;;;;2064717;28;20604;-63
2021/05/17 02:31:24;;;;;;;1.38;0.60;;;6.40;99.90;;;;;;2064669;28;20190;-63
2021/05/17 02:32:25;;;;;;;1.50;0.63;;;6.40;99.90;;;;;;2073153;28;20660;-63
2021/05/17 02:33:26;;;;;;;2.05;0.60;;;6.40;99.90;;;;;;2073447;28;20296;-63
2021/05/17 02:34:27;;;;;;;1.70;0.60;;;6.40;99.90;;;;;;2073293;28;20269;-63
2021/05/17 02:35:28;;;;;;;0.50;0.50;;;6.30;99.90;;;;;;2073359;28;20240;-63
2021/05/17 02:36:29;;;;;;;1.10;0.50;;;6.30;99.90;;;;;;2072905;28;20323;-63
2021/05/17 02:37:33;;;;;;;2.88;0.90;;;6.30;99.90;;;;;;2073127;28;20188;-63
2021/05/17 02:38:34;;;;;;;2.20;0.50;;;6.20;99.90;;;;;;2073245;28;20184;-63
2021/05/17 02:39:35;;;;;;;1.33;0.75;;;6.20;99.90;;;;;;2073299;28;20304;-63
2021/05/17 02:40:36;;;;;;;2.05;0.70;;;6.20;99.90;;;;;;2073256;28;20276;-63
2021/05/17 02:41:41;;;;;;;1.13;0.60;;;6.20;99.90;;;;;;2073094;28;20691;-66
2021/05/17 02:42:47;;;;;;;1.58;0.70;;;6.10;99.90;;;;;;2073219;28;20208;-63
2021/05/17 02:43:49;;;;;;;0.70;0.60;;;6.10;99.90;;;;;;2073136;28;20256;-63
2021/05/17 02:44:50;;;;;;;0.50;0.30;;;6.10;99.90;;;;;;2073202;28;20177;-63
2021/05/17 02:45:51;;;;;;;1.45;0.40;;;6.10;99.90;;;;;;2073135;28;20245;-63
2021/05/17 02:46:55;;;;;;;2.25;0.50;;;6.10;99.90;;;;;;2073137;28;20186;-63
2021/05/17 02:47:58;;;;;;;2.30;0.50;;;6.10;99.90;;;;;;2073346;28;20185;-63
2021/05/17 02:48:59;;;;;;;1.55;0.80;;;6.10;99.90;;;;;;2072877;28;20181;-63
2021/05/17 02:50:00;;;;;;;0.83;0.40;;;6.10;99.90;;;;;;2073246;28;20185;-63
2021/05/17 02:51:01;;;;;;;0.43;0.43;;;6.10;99.90;;;;;;2073081;28;20177;-63
2021/05/17 02:52:02;;;;;;;1.20;0.60;;;6.00;99.90;;;;;;2072818;28;20478;-63
2021/05/17 02:53:49;;;;;;;1.35;0.50;;;6.00;99.90;;;;;;2072942;28;20716;-66
2021/05/17 02:55:04;;;;;;;1.33;0.50;;;6.10;99.90;;;;;;2064285;28;20268;-63
2021/05/17 02:56:16;;;;;;;1.02;0.50;;;6.00;99.90;;;;;;2066469;28;20259;-63
2021/05/17 02:57:26;;;;;;;0.50;0.50;;;6.00;99.90;;;;;;2073005;28;20184;-63
2021/05/17 02:58:35;;;;;;;3.17;0.60;;;6.00;99.90;;;;;;2073073;28;20179;-63
2021/05/17 02:59:36;;;;;;;1.30;0.50;;;6.10;99.90;;;;;;2072905;28;20260;-63
2021/05/17 03:00:37;;;;;;;1.63;0.60;;;6.00;99.90;;;;;;2073007;28;20227;-63
2021/05/17 03:01:41;;;;;;;0.90;0.52;;;6.00;99.90;;;;;;2072795;28;20276;-63
2021/05/17 03:03:15;;;;;;;1.02;0.68;;;6.00;99.90;;;;;;2072976;28;20188;-63
2021/05/17 03:04:20;;;;;;;0.98;0.55;;;6.10;99.90;;;;;;2064358;28;20159;-63
2021/05/17 03:05:21;;;;;;;0.50;0.50;;;6.10;99.90;;;;;;2064811;28;20216;-63
2021/05/17 03:06:22;;;;;;;1.60;0.60;;;6.10;99.90;;;;;;2064318;28;20614;-63
2021/05/17 03:07:27;;;;;;;1.23;0.50;;;6.10;99.90;;;;;;2064177;28;20187;-63
2021/05/17 03:08:33;;;;;;;1.13;0.50;;;6.10;99.90;;;;;;2073071;28;20197;-63
2021/05/17 03:09:36;;;;;;;2.40;0.68;;;6.10;99.90;;;;;;2072903;28;20209;-63
2021/05/17 03:10:43;;;;;;;1.00;0.60;;;6.10;99.90;;;;;;2072883;28;20715;-63
2021/05/17 03:11:46;;;;;;;1.55;0.63;;;6.10;99.90;;;;;;2072778;28;20257;-63
2021/05/17 03:12:50;;;;;;;3.30;0.65;;;6.10;99.90;;;;;;2072670;28;20178;-63
2021/05/17 03:13:53;;;;;;;1.15;0.50;;;6.10;99.90;;;;;;2072682;28;20178;-63
2021/05/17 03:14:57;;;;;;;1.25;0.70;;;6.10;99.90;;;;;;2072348;28;20181;-63
2021/05/17 03:15:57;;;;;;;2.42;0.50;;;6.00;99.90;;;;;;2063932;28;20181;-63
2021/05/17 03:16:59;;;;;;;0.63;0.50;;;6.00;99.90;;;;;;2064198;28;20185;-63
2021/05/17 03:18:00;;;;;;;3.63;0.80;;;6.10;99.90;;;;;;2072138;28;20867;-63
2021/05/17 03:19:01;;;;;;;2.30;0.60;;;6.10;99.90;;;;;;2064086;28;20181;-63
2021/05/17 03:20:03;;;;;;;2.67;0.80;;;6.10;99.90;;;;;;2064123;28;20204;-63
2021/05/17 03:21:05;;;;;;;2.38;0.50;;;6.10;99.90;;;;;;2072732;28;20186;-63
2021/05/17 03:22:07;;;;;;;0.82;0.68;;;6.10;99.90;;;;;;2072662;28;20176;-63
2021/05/17 03:23:15;;;;;;;2.70;1.00;;;6.10;99.90;;;;;;2064059;28;20836;-63
2021/05/17 03:24:16;;;;;;;1.98;0.70;;;6.20;99.90;;;;;;2057012;28;20185;-63
2021/05/17 03:25:25;;;;;;;2.22;0.60;;;6.20;99.90;;;;;;2056208;28;20178;-63
2021/05/17 03:26:27;;;;;;;1.20;0.90;;;6.30;99.90;;;;;;2064939;28;20651;-63
2021/05/17 03:27:28;;;;;;;2.70;0.80;;;6.30;99.90;;;;;;2064008;28;20275;-63
2021/05/17 03:28:29;;;;;;;4.25;1.10;;;6.30;99.90;;;;;;2064044;28;20246;-63
2021/05/17 03:29:30;;;;;;;2.13;1.10;;;6.40;99.90;;;;;;2072606;28;20219;-63
2021/05/17 03:30:30;;;;;;;2.30;0.83;;;6.40;99.90;;;;;;2072602;28;20265;-63
2021/05/17 03:31:31;;;;;;;2.93;0.93;;;6.40;99.90;;;;;;2072628;28;20547;-63
2021/05/17 03:32:32;;;;;;;5.80;1.30;;;6.40;99.90;;;;;;2072603;28;20196;-63
2021/05/17 03:33:32;;;;;;;2.23;0.97;;;6.40;99.90;;;;;;2072751;28;20187;-63
2021/05/17 03:34:33;;;;;;;2.23;0.97;;;6.40;99.90;;;;;;2072723;28;20809;-63
2021/05/17 03:35:34;;;;;;;2.87;1.10;;;6.40;99.90;;;;;;2072919;28;20189;-63
2021/05/17 03:36:38;;;;;;;3.27;0.90;;;6.40;99.90;;;;;;2072686;28;20181;-63
2021/05/17 03:37:39;;;;;;;3.42;1.08;;;6.40;99.90;;;;;;2072770;28;20201;-63
2021/05/17 03:38:40;;;;;;;4.13;1.10;;;6.40;99.90;;;;;;2072652;28;20272;-63
2021/05/17 03:39:49;;;;;;;3.90;1.17;;;6.40;99.90;;;;;;2072732;28;20209;-63
2021/05/17 03:40:50;;;;;;;5.10;1.30;;;6.40;99.90;;;;;;2072738;28;20189;-63
2021/05/17 03:41:51;;;;;;;2.67;1.03;;;6.40;99.90;;;;;;2072498;28;20185;-63
2021/05/17 03:42:52;;;;;;;5.50;1.40;;;6.40;99.90;;;;;;2072592;28;20552;-63
2021/05/17 03:43:52;;;;;;;4.70;2.10;;;6.40;99.90;;;;;;2072679;28;20613;-64
2021/05/17 03:44:53;;;;;;;4.53;1.20;;;6.40;99.90;;;;;;2072483;28;20192;-64
2021/05/17 03:45:54;;;;;;;3.07;1.40;;;6.40;99.90;;;;;;2072707;28;20193;-64
2021/05/17 03:46:55;;;;;;;5.07;1.60;;;6.40;99.90;;;;;;2072631;28;20189;-64
2021/05/17 03:47:56;;;;;;;5.35;1.27;;;6.40;99.90;;;;;;2072128;28;20889;-64
2021/05/17 03:48:56;;;;;;;5.47;1.23;;;6.40;99.90;;;;;;2072584;28;20197;-64
2021/05/17 03:49:57;;;;;;;5.87;1.60;;;6.50;99.90;;;;;;2072573;28;20201;-64
2021/05/17 03:50:58;;;;;;;2.57;1.30;;;6.40;99.90;;;;;;2072668;28;20568;-64
2021/05/17 03:51:58;;;;;;;3.53;1.17;;;6.40;99.90;;;;;;2072379;28;20182;-64
2021/05/17 03:52:59;;;;;;;5.73;1.20;;;6.40;99.90;;;;;;2072543;28;20239;-64
2021/05/17 03:54:00;;;;;;;2.37;0.90;;;6.40;99.90;;;;;;2072537;28;20178;-64
2021/05/17 03:55:01;;;;;;;3.47;1.40;;;6.40;99.90;;;;;;2072626;28;20555;-64
2021/05/17 03:56:02;;;;;;;3.43;1.17;;;6.40;99.90;;;;;;2072629;28;20184;-64
2021/05/17 03:57:04;;;;;;;4.07;1.50;;;6.40;99.90;;;;;;2063742;28;20429;-64
2021/05/17 03:58:05;;;;;;;2.97;1.10;;;6.40;99.90;;;;;;2064111;28;20186;-64
2021/05/17 03:59:06;;;;;;;4.20;1.20;;;6.40;99.90;;;;;;2072291;28;20184;-64
2021/05/17 04:00:09;;;;;;;3.47;1.20;;;6.40;99.90;;;;;;2072648;28;20283;-64
2021/05/17 04:01:09;;;;;;;4.65;1.20;;;6.30;99.90;;;;;;2072457;28;20181;-64
2021/05/17 04:02:11;;;;;;;3.53;1.13;;;6.40;99.90;;;;;;2072457;28;20192;-64
2021/05/17 04:03:15;;;;;;;4.28;1.17;;;6.40;99.90;;;;;;2072510;28;20270;-69
2021/05/17 04:04:18;;;;;;;4.28;1.52;;;6.40;99.90;;;;;;2072396;28;20189;-64
2021/05/17 04:06:47;;;;;;;5.43;1.55;;;6.40;99.90;;;;;;2047248;29;20211;-64
2021/05/17 04:14:05;;;;;;;3.50;0.90;;;6.40;99.90;;;;;;2072459;28;20554;-64
2021/05/17 04:15:07;;;;;;;3.42;1.48;;;6.50;99.90;;;;;;2072428;28;20182;-64
2021/05/17 04:16:08;;;;;;;3.80;0.90;;;6.50;99.90;;;;;;2072364;28;20185;-65
2021/05/17 04:17:09;;;;;;;3.70;1.23;;;6.50;99.90;;;;;;2072725;28;20268;-64
2021/05/17 04:18:11;;;;;;;3.00;1.00;;;6.50;99.90;;;;;;2073283;28;20173;-64
2021/05/17 04:19:12;;;;;;;2.40;1.00;;;6.50;99.90;;;;;;2064351;28;20182;-64
2021/05/17 04:20:14;;;;;;;2.67;1.10;;;6.50;99.90;;;;;;2064502;28;20243;-64
2021/05/17 04:21:15;;;;;;;3.92;1.23;;;6.60;99.90;;;;;;2063995;28;20178;-64
2021/05/17 04:22:16;;;;;;;4.73;0.90;;;6.50;99.90;;;;;;2064426;28;20578;-64
2021/05/17 04:23:25;;;;;;;3.30;0.90;;;6.60;99.90;;;;;;2073222;28;20232;-64
2021/05/17 04:24:26;;;;;;;2.78;1.30;;;6.60;99.90;;;;;;2073049;28;20185;-64
2021/05/17 04:25:28;;;;;;;2.70;0.93;;;6.60;99.90;;;;;;2072935;28;20623;-65
2021/05/17 04:26:28;;;;;;;3.55;1.05;;;6.60;99.90;;;;;;2072793;28;20194;-65
2021/05/17 04:27:29;;;;;;;4.07;1.10;;;6.70;99.90;;;;;;2073179;28;20185;-65
2021/05/17 04:28:30;;;;;;;3.43;0.90;;;6.70;99.90;;;;;;2073011;28;20253;-65
2021/05/17 04:29:31;;;;;;;4.22;0.90;;;6.70;99.90;;;;;;2072747;28;20586;-65
2021/05/17 04:30:32;;;;;;;3.43;0.97;;;6.70;99.90;;;;;;2072835;28;20182;-65
2021/05/17 04:31:33;;;;;;;2.13;1.02;;;6.70;99.90;;;;;;2072830;28;20189;-64
2021/05/17 04:32:34;;;;;;;1.97;0.90;;;6.60;99.90;;;;;;2072866;28;20817;-65
2021/05/17 04:33:35;;;;;;;2.35;1.02;;;6.60;99.90;;;;;;2073051;28;20671;-64
2021/05/17 04:34:35;;;;;;;2.27;1.07;;;6.60;99.90;;;;;;2073029;28;20189;-64
2021/05/17 04:35:36;;;;;;;3.07;0.80;;;6.60;99.90;;;;;;2072977;28;20638;-64
2021/05/17 04:36:37;;;;;;;1.77;0.90;;;6.60;99.90;;;;;;2072808;28;20256;-64
2021/05/17 04:37:37;;;;;;;4.03;1.17;;;6.60;99.90;;;;;;2114635;22;20260;-64
2021/05/17 04:38:38;;;;;;;5.90;1.63;;;6.60;99.90;;;;;;2080241;28;20207;-64
2021/05/17 04:39:39;;;;;;;3.47;1.00;;;6.60;99.90;;;;;;2080551;28;20185;-65
2021/05/17 04:40:41;;;;;;;2.10;0.73;;;6.60;99.90;;;;;;2081114;28;20192;-64
2021/05/17 04:41:42;;;;;;;2.83;0.90;;;6.60;99.90;;;;;;2063767;28;20265;-65
2021/05/17 04:42:43;;;;;;;4.73;0.90;;;6.60;99.90;;;;;;2064241;28;20198;-64
2021/05/17 04:43:44;;;;;;;3.20;0.90;;;6.60;99.90;;;;;;2080997;28;20243;-65
2021/05/17 04:44:45;;;;;;;1.47;0.80;;;6.60;99.90;;;;;;2081042;28;20690;-64
2021/05/17 04:45:45;;;;;;;3.30;0.87;;;6.60;99.90;;;;;;2080994;28;20184;-64
2021/05/17 04:46:46;;;;;;;3.03;0.80;;;6.60;99.90;;;;;;2081303;28;20173;-64
2021/05/17 04:47:47;;;;;;;2.80;1.07;;;6.70;99.90;;;;;;2080603;28;20601;-64
2021/05/17 04:48:50;;;;;;;2.57;0.80;;;6.60;99.90;;;;;;2081019;28;20276;-65
2021/05/17 04:49:51;;;;;;;2.53;0.80;;;6.70;99.90;;;;;;2081059;28;20619;-64
2021/05/17 04:50:52;;;;;;;1.55;0.90;;;6.70;99.90;;;;;;2072166;28;20197;-64
2021/05/17 04:51:53;;;;;;;2.40;0.90;;;6.70;99.90;;;;;;2072210;28;20556;-64
2021/05/17 04:52:53;;;;;;;2.77;0.83;;;6.70;99.90;;;;;;2080719;28;20310;-64
2021/05/17 04:53:54;;;;;;;1.50;0.60;;;6.70;99.90;;;;;;2080980;28;20216;-64
2021/05/17 04:54:55;;;;;;;2.40;0.90;;;6.70;99.90;;;;;;2081029;28;20185;-64
2021/05/17 04:55:55;;;;;;;2.37;1.13;;;6.80;99.90;;;;;;2081291;28;20243;-64
2021/05/17 04:56:56;;;;;;;2.63;0.97;;;6.80;99.90;;;;;;2080884;28;20614;-64
2021/05/17 04:57:57;;;;;;;1.60;0.90;;;6.80;99.90;;;;;;2081604;28;20239;-64
2021/05/17 04:58:57;;;;;;;5.53;1.03;;;6.90;99.90;;;;;;2081767;28;20193;-64
2021/05/17 04:59:58;;;;;;;3.73;0.83;;;6.90;99.90;;;;;;2084668;28;20173;-65
2021/05/17 05:00:59;;;;;;;3.47;1.10;;;6.90;99.90;;;;;;2085397;28;20199;-64
2021/05/17 05:01:59;;;;;;;1.77;0.90;;;7.00;99.90;;;;;;2084599;28;20215;-64
2021/05/17 05:03:00;;;;;;;2.30;1.20;;;7.00;99.90;;;;;;2083017;28;20232;-64
2021/05/17 05:04:01;;;;;;;3.47;1.03;;;7.00;99.90;;;;;;2083137;28;20180;-64
2021/05/17 05:05:02;;;;;;;4.00;1.50;;;6.90;99.90;;;;;;2074133;28;20177;-64
2021/05/17 05:06:03;;;;;;;3.27;1.50;;;6.90;99.90;;;;;;2074091;28;20234;-64
2021/05/17 05:07:04;;;;;;;4.18;1.70;;;6.90;99.90;;;;;;2082917;28;20439;-64
2021/05/17 05:08:04;;;;;;;2.20;1.37;;;6.90;99.90;;;;;;2083040;28;20228;-63
2021/05/17 05:09:05;;;;;;;3.90;1.20;;;6.90;99.90;;;;;;2083016;28;20185;-62
2021/05/17 05:10:07;;;;;;;2.70;1.33;;;6.90;99.90;;;;;;2083177;28;20187;-63
2021/05/17 05:11:08;;;;;;;3.67;1.40;;;6.90;99.90;;;;;;2082753;28;20193;-63
2021/05/17 05:12:09;;;;;;;3.87;1.80;;;6.90;99.90;;;;;;2082701;28;20243;-62
2021/05/17 05:13:09;;;;;;;2.40;1.47;;;6.90;99.90;;;;;;2082881;28;20174;-62
2021/05/17 05:14:10;;;;;;;2.60;1.60;;;6.90;99.90;;;;;;2083050;28;20268;-63
2021/05/17 05:15:11;;;;;;;1.63;1.00;;;6.90;99.90;;;;;;2083020;28;20203;-63
2021/05/17 05:16:12;;;;;;;1.88;0.60;;;6.90;99.90;;;;;;2083112;28;20717;-62
2021/05/17 05:17:13;;;;;;;3.37;1.07;;;6.90;99.90;;;;;;2082860;28;20315;-62
2021/05/17 05:18:13;;;;;;;1.87;0.90;;;6.90;99.90;;;;;;2082410;28;20632;-62
2021/05/17 05:19:14;;;;;;;6.60;1.30;;;6.90;99.90;;;;;;2082869;28;20181;-63
2021/05/17 05:20:15;;;;;;;5.20;2.43;;;7.00;99.90;;;;;;2082923;28;20363;-63
2021/05/17 05:21:16;;;;;;;4.37;1.80;;;7.00;99.90;;;;;;2082641;28;20177;-62
2021/05/17 05:22:16;;;;;;;8.13;3.50;;;7.00;99.90;;;;;;2083101;28;20466;-63
2021/05/17 05:23:18;;;;;;;3.90;1.40;;;7.10;99.90;;;;;;2082827;28;20228;-63
2021/05/17 05:24:19;;;;;;;5.78;1.95;;;7.10;99.90;;;;;;2072838;28;20177;-63
2021/05/17 05:25:22;;;;;;;4.47;1.50;;;7.00;99.90;;;;;;2073048;28;20200;-63
2021/05/17 05:27:32;;;;;;;2.47;1.23;;;7.00;99.90;;;;;;2081863;28;20591;-63
2021/05/17 05:32:21;;;;;;;2.72;1.42;;;7.10;99.90;;;;;;2081664;28;20191;-62
2021/05/17 05:33:17;;;;;;;2.47;1.30;;;7.00;99.90;;;;;;2081438;28;20731;-63
2021/05/17 05:34:18;;;;;;;2.42;0.90;;;7.00;99.90;;;;;;2081823;28;20214;-63
2021/05/17 05:35:19;;;;;;;3.30;1.00;;;7.00;99.90;;;;;;2081686;28;20656;-63
2021/05/17 05:36:20;;;;;;;3.38;1.20;;;7.00;99.90;;;;;;2081694;28;20315;-62
2021/05/17 05:37:21;;;;;;;2.53;0.90;;;7.00;99.90;;;;;;2081746;28;20181;-63
2021/05/17 05:38:22;;;;;;;2.27;0.80;;;7.00;99.90;;;;;;2072727;28;20747;-63
2021/05/17 05:39:22;;;;;;;1.17;0.60;;;7.00;99.90;;;;;;2072982;28;20185;-63
2021/05/17 05:40:23;;;;;;;1.33;0.70;;;7.00;99.90;;;;;;2081680;28;20267;-65
2021/05/17 05:41:24;;;;;;;1.00;0.60;;;7.00;99.90;;;;;;2080835;28;20212;-63
2021/05/17 05:42:26;;;;;;;1.43;0.60;;;7.00;99.90;;;;;;2081104;28;20216;-64
2021/05/17 05:43:27;;;;;;;4.57;0.85;;;7.00;99.90;;;;;;2081805;28;20608;-65